KVEL/VEL METAR and TAF weather

Enter ICAO airport designator
Station Type Date Time Source
KVEL METAR 2020/08/05 15:53 UTC NOAA

KVEL 051553Z AUTO 15004KT 10SM CLR 26/04 A3009 RMK AO2 SLP111 T02560039


Station Type Date Time Source
KVEL Decoded METAR 2020/08/05 15:53 UTC NOAA

VERNAL AIRPORT, UT, United States (KVEL) 40-26N 109-30W 1604M
Aug 05, 2020 - 11:53 AM EDT / 2020.08.05 1553 UTC
Wind: from the SSE (150 degrees) at 5 MPH (4 KT):0
Visibility: 10 mile(s):0
Sky conditions: clear
Temperature: 78.1 F (25.6 C)
Dew Point: 39.0 F (3.9 C)
Relative Humidity: 24%
Pressure (altimeter): 30.09 in. Hg (1018 hPa)
ob: KVEL 051553Z AUTO 15004KT 10SM CLR 26/04 A3009 RMK AO2 SLP111 T02560039
cycle: 16

Station Type Date Time Source
KVEL TAF 2020/08/05 12:42 UTC NOAA

TAF KVEL 051139Z 0512/0612 30006KT P6SM FEW150 FEW250
FM051600 17005KT P6SM FEW120 FEW250
FM052100 24008KT P6SM FEW150 SCT200
FM060400 28005KT P6SM FEW150 SCT200

Example: see airport list